createdAt,value
2019-06-27T00:00:31.929Z,19.95
2019-06-27T00:01:42.143Z,19.88
2019-06-27T00:02:52.352Z,19.85
2019-06-27T00:04:02.497Z,19.8
2019-06-27T00:05:12.630Z,19.8
2019-06-27T00:06:22.749Z,19.73
2019-06-27T00:07:32.887Z,19.68
2019-06-27T00:08:43.051Z,19.67
2019-06-27T00:09:53.177Z,19.64
2019-06-27T00:11:03.045Z,19.53
2019-06-27T00:12:12.971Z,19.53
2019-06-27T00:13:23.115Z,19.49
2019-06-27T00:14:33.032Z,19.33
2019-06-27T00:15:43.226Z,19.45
2019-06-27T00:16:53.379Z,19.33
2019-06-27T00:18:03.501Z,19.31
2019-06-27T00:19:13.650Z,19.27
2019-06-27T00:20:23.756Z,19.31
2019-06-27T00:21:33.934Z,19.33
2019-06-27T00:22:46.216Z,19.23
2019-06-27T00:23:56.322Z,19.18
2019-06-27T00:25:06.486Z,19.15
2019-06-27T00:26:16.613Z,19.15
2019-06-27T00:27:26.743Z,19.06
2019-06-27T00:28:36.881Z,19.09
2019-06-27T00:29:47.006Z,19.05
2019-06-27T00:30:57.222Z,18.93
2019-06-27T00:32:07.351Z,18.95
2019-06-27T00:33:17.503Z,18.87
2019-06-27T00:34:27.638Z,18.91
2019-06-27T00:35:37.747Z,18.91
2019-06-27T00:36:47.858Z,18.87
2019-06-27T00:37:58.049Z,18.87
2019-06-27T00:39:08.224Z,18.84
2019-06-27T00:40:18.338Z,18.8
2019-06-27T00:41:28.509Z,18.8
2019-06-27T00:42:40.419Z,18.73
2019-06-27T00:43:50.568Z,18.73
2019-06-27T00:45:00.702Z,18.72
2019-06-27T00:46:10.806Z,18.73
2019-06-27T00:47:20.916Z,18.73
2019-06-27T00:48:30.773Z,18.62
2019-06-27T00:49:40.889Z,18.59
2019-06-27T00:50:51.051Z,18.55
2019-06-27T00:52:01.164Z,18.56
2019-06-27T00:53:11.275Z,18.55
2019-06-27T00:54:21.130Z,18.5
2019-06-27T00:55:31.250Z,18.53
2019-06-27T00:56:41.454Z,18.46
2019-06-27T00:57:51.569Z,18.38
2019-06-27T00:59:01.681Z,18.4
2019-06-27T01:00:11.795Z,18.38
2019-06-27T01:01:21.985Z,18.41
2019-06-27T01:02:32.113Z,18.32
2019-06-27T01:03:42.229Z,18.46
2019-06-27T01:04:52.350Z,18.26
2019-06-27T01:06:02.471Z,18.32
2019-06-27T01:07:12.740Z,18.44
2019-06-27T01:08:22.932Z,18.32
2019-06-27T01:09:33.087Z,18.4
2019-06-27T01:10:43.191Z,18.4
2019-06-27T01:11:53.308Z,18.37
2019-06-27T01:13:03.436Z,18.34
2019-06-27T01:14:13.551Z,18.28
2019-06-27T01:15:23.662Z,18.25
2019-06-27T01:16:33.789Z,18.37
2019-06-27T01:17:43.695Z,18.31
2019-06-27T01:18:53.556Z,18.37
2019-06-27T01:20:03.679Z,18.4
2019-06-27T01:21:13.789Z,18.31
2019-06-27T01:22:23.910Z,18.3
2019-06-27T01:23:34.021Z,18.3
2019-06-27T01:24:44.121Z,18.12
2019-06-27T01:25:54.294Z,18.12
2019-06-27T01:27:04.468Z,18.26
2019-06-27T01:28:14.818Z,18.22
2019-06-27T01:29:24.942Z,18.22
2019-06-27T01:30:35.047Z,18.22
2019-06-27T01:31:45.188Z,18.22
2019-06-27T01:32:55.308Z,18.17
2019-06-27T01:34:05.453Z,18.16
2019-06-27T01:35:15.572Z,18.12
2019-06-27T01:36:25.726Z,18.12
2019-06-27T01:37:35.871Z,18.07
2019-06-27T01:38:45.987Z,18.15
2019-06-27T01:39:56.110Z,18.1
2019-06-27T01:41:06.249Z,18.12
2019-06-27T01:42:16.362Z,18.12
2019-06-27T01:43:26.486Z,18.09
2019-06-27T01:44:36.683Z,18.01
2019-06-27T01:45:46.830Z,18.02
2019-06-27T01:46:57.206Z,17.98
2019-06-27T01:48:07.336Z,18.01
2019-06-27T01:49:17.442Z,18.01
2019-06-27T01:50:27.551Z,18.02
2019-06-27T01:51:37.042Z,17.92
2019-06-27T01:52:47.149Z,17.95
2019-06-27T01:53:57.258Z,17.87
2019-06-27T01:55:07.374Z,18.01
2019-06-27T01:56:17.497Z,17.91
2019-06-27T01:57:27.346Z,17.92
2019-06-27T01:58:53.319Z,18.01
2019-06-27T02:00:03.452Z,17.98
2019-06-27T02:01:13.584Z,17.98
2019-06-27T02:02:23.700Z,17.97
2019-06-27T02:03:33.833Z,17.91
2019-06-27T02:04:43.954Z,17.94
2019-06-27T02:05:54.061Z,17.91
2019-06-27T02:07:04.312Z,17.95
2019-06-27T02:08:14.438Z,17.91
2019-06-27T02:09:24.566Z,17.85
2019-06-27T02:10:36.590Z,17.89
2019-06-27T02:11:46.696Z,17.91
2019-06-27T02:12:56.467Z,17.89
2019-06-27T02:14:06.589Z,17.92
2019-06-27T02:15:16.698Z,17.94
2019-06-27T02:16:29.949Z,17.85
2019-06-27T02:17:40.090Z,17.86
2019-06-27T02:18:50.304Z,17.87
2019-06-27T02:20:00.154Z,17.7
2019-06-27T02:21:10.017Z,17.82
2019-06-27T02:22:20.133Z,17.72
2019-06-27T02:23:30.251Z,17.73
2019-06-27T02:24:40.418Z,17.68
2019-06-27T02:25:50.608Z,17.73
2019-06-27T02:27:00.721Z,17.76
2019-06-27T02:28:10.845Z,17.77
2019-06-27T02:29:20.947Z,17.68
2019-06-27T02:30:31.080Z,17.75
2019-06-27T02:31:41.198Z,17.73
2019-06-27T02:32:51.315Z,17.75
2019-06-27T02:34:06.224Z,17.67
2019-06-27T02:35:16.689Z,17.75
2019-06-27T02:36:26.875Z,17.6
2019-06-27T02:37:36.993Z,17.62
2019-06-27T02:38:47.128Z,17.64
2019-06-27T02:39:56.996Z,17.6
2019-06-27T02:41:07.131Z,17.61
2019-06-27T02:42:17.307Z,17.61
2019-06-27T02:43:27.436Z,17.61
2019-06-27T02:44:37.655Z,17.62
2019-06-27T02:45:47.870Z,17.64
2019-06-27T02:46:58.002Z,17.57
2019-06-27T02:48:07.773Z,17.57
2019-06-27T02:49:17.907Z,17.6
2019-06-27T02:50:28.029Z,17.55
2019-06-27T02:51:38.177Z,17.5
2019-06-27T02:52:48.405Z,17.54
2019-06-27T02:53:58.551Z,17.49
2019-06-27T02:55:08.676Z,17.45
2019-06-27T02:56:18.868Z,17.42
2019-06-27T02:57:29.003Z,17.46
2019-06-27T02:58:39.138Z,17.42
2019-06-27T02:59:49.264Z,17.43
2019-06-27T03:00:59.415Z,17.4
2019-06-27T03:02:09.550Z,17.47
2019-06-27T03:03:19.789Z,17.46
2019-06-27T03:04:29.979Z,17.42
2019-06-27T03:05:40.168Z,17.46
2019-06-27T03:06:50.401Z,17.4
2019-06-27T03:08:00.530Z,17.39
2019-06-27T03:09:10.754Z,17.38
2019-06-27T03:10:20.880Z,17.3
2019-06-27T03:11:31.005Z,17.38
2019-06-27T03:12:41.184Z,17.42
2019-06-27T03:13:51.317Z,17.38
2019-06-27T03:15:01.465Z,17.36
2019-06-27T03:16:11.648Z,17.32
2019-06-27T03:17:21.802Z,17.36
2019-06-27T03:18:31.918Z,17.45
2019-06-27T03:19:42.059Z,17.39
2019-06-27T03:20:52.209Z,17.38
2019-06-27T03:22:05.561Z,17.28
2019-06-27T03:23:15.906Z,17.3
2019-06-27T03:24:26.020Z,17.28
2019-06-27T03:25:36.141Z,17.32
2019-06-27T03:26:46.494Z,17.17
2019-06-27T03:27:56.661Z,17.27
2019-06-27T03:29:06.820Z,17.2
2019-06-27T03:30:17.255Z,17.21
2019-06-27T03:31:27.458Z,17.05
2019-06-27T03:32:37.659Z,17.06
2019-06-27T03:33:47.824Z,17.05
2019-06-27T03:34:57.983Z,17.08
2019-06-27T03:36:08.146Z,17.08
2019-06-27T03:37:18.566Z,17.06
2019-06-27T03:38:28.436Z,17.14
2019-06-27T03:39:38.560Z,17.01
2019-06-27T03:40:48.692Z,17.08
2019-06-27T03:41:58.804Z,17.01
2019-06-27T03:43:09.174Z,17.04
2019-06-27T03:44:19.444Z,16.99
2019-06-27T03:45:29.601Z,16.96
2019-06-27T03:46:39.713Z,16.91
2019-06-27T03:47:49.916Z,16.9
2019-06-27T03:49:00.038Z,16.9
2019-06-27T03:50:10.177Z,16.87
2019-06-27T03:51:20.310Z,16.84
2019-06-27T03:52:30.449Z,16.83
2019-06-27T03:53:40.324Z,16.84
2019-06-27T03:54:50.457Z,16.84
2019-06-27T03:56:00.582Z,16.87
2019-06-27T03:57:10.719Z,16.91
2019-06-27T03:58:20.863Z,16.96
2019-06-27T03:59:30.979Z,16.93
2019-06-27T04:00:40.849Z,16.91
2019-06-27T04:01:51.040Z,16.84
2019-06-27T04:03:01.194Z,16.84
2019-06-27T04:04:11.346Z,16.91
2019-06-27T04:05:21.588Z,16.91
2019-06-27T04:06:31.752Z,16.98
2019-06-27T04:07:41.889Z,16.96
2019-06-27T04:08:51.649Z,17.01
2019-06-27T04:10:01.777Z,17.04
2019-06-27T04:11:11.898Z,17.08
2019-06-27T04:12:22.061Z,17.06
2019-06-27T04:13:32.182Z,17.08
2019-06-27T04:14:42.339Z,16.98
2019-06-27T04:15:52.112Z,16.99
2019-06-27T04:17:02.233Z,16.9
2019-06-27T04:18:12.368Z,16.96
2019-06-27T04:19:22.503Z,16.98
2019-06-27T04:20:32.618Z,16.86
2019-06-27T04:21:42.753Z,16.83
2019-06-27T04:22:52.881Z,16.86
2019-06-27T04:24:03.028Z,16.94
2019-06-27T04:25:13.235Z,16.96
2019-06-27T04:26:23.662Z,16.98
2019-06-27T04:27:33.807Z,16.93
2019-06-27T04:28:43.987Z,16.84
2019-06-27T04:29:54.135Z,16.91
2019-06-27T04:31:04.284Z,16.91
2019-06-27T04:32:14.445Z,16.84
2019-06-27T04:33:24.582Z,16.86
2019-06-27T04:34:34.740Z,16.91
2019-06-27T04:35:44.919Z,16.87
2019-06-27T04:36:55.053Z,16.8
2019-06-27T04:38:05.193Z,16.87
2019-06-27T04:39:15.331Z,16.91
2019-06-27T04:40:25.208Z,16.87
2019-06-27T04:41:35.333Z,16.91
2019-06-27T04:42:45.526Z,16.93
2019-06-27T04:43:55.664Z,16.9
2019-06-27T04:45:05.806Z,16.99
2019-06-27T04:46:15.930Z,16.91
2019-06-27T04:47:26.125Z,16.98
2019-06-27T04:48:36.331Z,16.98
2019-06-27T04:49:46.504Z,16.94
2019-06-27T04:50:56.716Z,16.89
2019-06-27T04:52:06.915Z,16.87
2019-06-27T04:53:17.075Z,16.87
2019-06-27T04:54:27.214Z,16.83
2019-06-27T04:55:37.325Z,16.93
2019-06-27T04:56:47.445Z,16.87
2019-06-27T04:57:57.560Z,16.91
2019-06-27T04:59:07.695Z,16.75
2019-06-27T05:00:17.847Z,16.72
2019-06-27T05:01:27.983Z,16.8
2019-06-27T05:02:38.112Z,16.74
2019-06-27T05:03:48.245Z,16.54
2019-06-27T05:04:58.395Z,16.49
2019-06-27T05:06:08.534Z,16.47
2019-06-27T05:07:18.650Z,16.53
2019-06-27T05:08:28.794Z,16.5
2019-06-27T05:09:38.730Z,16.51
2019-06-27T05:10:48.842Z,16.49
2019-06-27T05:11:58.960Z,16.5
2019-06-27T05:13:09.158Z,16.47
2019-06-27T05:14:19.286Z,16.47
2019-06-27T05:15:29.411Z,16.36
2019-06-27T05:16:39.529Z,16.49
2019-06-27T05:17:49.289Z,16.43
2019-06-27T05:18:59.448Z,16.39
2019-06-27T05:20:10.282Z,16.47
2019-06-27T05:21:20.429Z,16.42
2019-06-27T05:22:30.562Z,16.49
2019-06-27T05:23:40.764Z,16.56
2019-06-27T05:24:50.881Z,16.56
2019-06-27T05:26:01.000Z,16.54
2019-06-27T05:27:11.163Z,16.53
2019-06-27T05:28:21.289Z,16.54
2019-06-27T05:29:31.397Z,16.54
2019-06-27T05:30:41.538Z,16.56
2019-06-27T05:31:51.676Z,16.59
2019-06-27T05:33:01.788Z,16.66
2019-06-27T05:34:11.948Z,16.75
2019-06-27T05:35:22.086Z,16.74
2019-06-27T05:36:32.233Z,16.83
2019-06-27T05:37:42.360Z,16.71
2019-06-27T05:38:52.497Z,16.79
2019-06-27T05:40:02.610Z,16.71
2019-06-27T05:41:12.493Z,16.71
2019-06-27T05:42:22.641Z,16.62
2019-06-27T05:43:32.788Z,16.49
2019-06-27T05:44:42.904Z,16.47
2019-06-27T05:45:53.035Z,16.54
2019-06-27T05:47:03.176Z,16.64
2019-06-27T05:48:13.063Z,16.66
2019-06-27T05:49:23.198Z,16.68
2019-06-27T05:50:33.313Z,16.66
2019-06-27T05:51:43.447Z,16.5
2019-06-27T05:52:53.612Z,16.39
2019-06-27T05:54:03.849Z,16.42
2019-06-27T05:55:13.977Z,16.42
2019-06-27T05:56:24.086Z,16.39
2019-06-27T05:57:34.215Z,16.49
2019-06-27T05:58:44.360Z,16.42
2019-06-27T05:59:57.435Z,16.42
2019-06-27T06:01:07.658Z,16.31
2019-06-27T06:02:17.782Z,16.32
2019-06-27T06:03:27.971Z,16.36
2019-06-27T06:04:37.849Z,16.29
2019-06-27T06:05:48.106Z,16.31
2019-06-27T06:06:58.237Z,16.43
2019-06-27T06:08:08.370Z,16.42
2019-06-27T06:09:17.971Z,16.47
2019-06-27T06:10:28.133Z,16.5
2019-06-27T06:11:38.305Z,16.51
2019-06-27T06:12:48.194Z,16.51
2019-06-27T06:13:58.337Z,16.65
2019-06-27T06:15:08.474Z,16.68
2019-06-27T06:16:18.627Z,16.72
2019-06-27T06:17:28.752Z,16.76
2019-06-27T06:18:38.917Z,16.76
2019-06-27T06:19:49.257Z,16.75
2019-06-27T06:20:59.624Z,16.94
2019-06-27T06:22:09.761Z,17.05
2019-06-27T06:23:19.880Z,17.06
2019-06-27T06:24:30.051Z,17.12
2019-06-27T06:25:40.209Z,17.11
2019-06-27T06:26:50.332Z,17.09
2019-06-27T06:28:00.556Z,17.2
2019-06-27T06:29:10.430Z,17.21
2019-06-27T06:30:21.014Z,17.19
2019-06-27T06:31:31.158Z,17.16
2019-06-27T06:32:41.331Z,17.16
2019-06-27T06:33:51.450Z,17.39
2019-06-27T06:35:01.802Z,17.27
2019-06-27T06:36:11.972Z,17.24
2019-06-27T06:37:22.075Z,17.36
2019-06-27T06:38:32.458Z,17.31
2019-06-27T06:39:42.592Z,17.21
2019-06-27T06:40:52.731Z,17.2
2019-06-27T06:42:02.890Z,17.12
2019-06-27T06:43:13.080Z,17.08
2019-06-27T06:44:23.266Z,17.05
2019-06-27T06:45:33.379Z,16.96
2019-06-27T06:46:43.513Z,16.98
2019-06-27T06:47:53.690Z,16.83
2019-06-27T06:49:03.821Z,16.72
2019-06-27T06:50:14.018Z,16.75
2019-06-27T06:51:24.180Z,16.76
2019-06-27T06:52:34.362Z,16.68
2019-06-27T06:53:44.685Z,16.68
2019-06-27T06:54:54.836Z,16.74
2019-06-27T06:56:04.631Z,16.75
2019-06-27T06:57:14.754Z,16.69
2019-06-27T06:58:24.584Z,16.83
2019-06-27T06:59:34.720Z,16.89
2019-06-27T07:01:00.144Z,16.91
2019-06-27T07:02:11.207Z,17.01
2019-06-27T07:03:21.347Z,17.04
2019-06-27T07:04:31.481Z,16.94
2019-06-27T07:05:41.626Z,16.99
2019-06-27T07:06:51.575Z,16.87
2019-06-27T07:08:01.713Z,16.79
2019-06-27T07:09:11.930Z,17.01
2019-06-27T07:10:22.083Z,16.93
2019-06-27T07:11:32.203Z,17.11
2019-06-27T07:12:42.342Z,17.09
2019-06-27T07:13:52.474Z,17.06
2019-06-27T07:15:02.611Z,17.05
2019-06-27T07:16:12.759Z,17.09
2019-06-27T07:17:22.945Z,17.17
2019-06-27T07:18:33.077Z,17.31
2019-06-27T07:19:42.985Z,17.24
2019-06-27T07:20:53.144Z,17.19
2019-06-27T07:22:03.270Z,17.23
2019-06-27T07:23:13.405Z,17.09
2019-06-27T07:24:23.518Z,17.12
2019-06-27T07:25:33.644Z,17.14
2019-06-27T07:26:43.759Z,17.17
2019-06-27T07:27:53.916Z,17.08
2019-06-27T07:29:04.089Z,17.06
2019-06-27T07:30:14.295Z,17.16
2019-06-27T07:31:24.421Z,17.05
2019-06-27T07:32:34.559Z,17.01
2019-06-27T07:33:44.707Z,17.11
2019-06-27T07:34:54.823Z,17.06
2019-06-27T07:36:04.982Z,17.17
2019-06-27T07:37:15.102Z,17.21
2019-06-27T07:38:25.214Z,17.27
2019-06-27T07:39:35.333Z,17.39
2019-06-27T07:40:45.467Z,17.5
2019-06-27T07:41:55.665Z,17.49
2019-06-27T07:43:05.540Z,17.4
2019-06-27T07:44:15.768Z,17.38
2019-06-27T07:45:27.831Z,17.4
2019-06-27T07:46:37.979Z,17.43
2019-06-27T07:47:47.842Z,17.46
2019-06-27T07:48:57.974Z,17.36
2019-06-27T07:50:08.127Z,17.28
2019-06-27T07:51:18.250Z,17.14
2019-06-27T07:52:28.462Z,17.21
2019-06-27T07:53:38.595Z,17.23
2019-06-27T07:54:48.748Z,17.28
2019-06-27T07:55:59.004Z,17.45
2019-06-27T07:57:09.143Z,17.6
2019-06-27T07:58:19.263Z,17.61
2019-06-27T07:59:29.405Z,17.72
2019-06-27T08:00:39.534Z,17.72
2019-06-27T08:01:49.412Z,17.79
2019-06-27T08:02:59.539Z,17.68
2019-06-27T08:04:09.969Z,17.73
2019-06-27T08:05:20.097Z,17.73
2019-06-27T08:06:30.238Z,17.87
2019-06-27T08:07:40.282Z,17.97
2019-06-27T08:08:50.535Z,18.05
2019-06-27T08:10:00.442Z,18.05
2019-06-27T08:11:10.573Z,18.09
2019-06-27T08:12:20.688Z,18.02
2019-06-27T08:13:31.385Z,17.95
2019-06-27T08:14:41.546Z,18.01
2019-06-27T08:15:51.667Z,18.1
2019-06-27T08:17:01.807Z,18.26
2019-06-27T08:18:11.976Z,18.35
2019-06-27T08:19:22.106Z,18.35
2019-06-27T08:20:32.262Z,18.56
2019-06-27T08:21:42.396Z,18.62
2019-06-27T08:22:52.745Z,18.72
2019-06-27T08:24:02.896Z,18.75
2019-06-27T08:25:13.048Z,18.94
2019-06-27T08:26:23.178Z,18.98
2019-06-27T08:27:33.319Z,19.09
2019-06-27T08:28:43.441Z,19.16
2019-06-27T08:29:53.594Z,19.13
2019-06-27T08:31:03.760Z,19.21
2019-06-27T08:32:13.887Z,19.09
2019-06-27T08:33:24.014Z,19.13
2019-06-27T08:34:34.156Z,18.98
2019-06-27T08:35:44.310Z,19.1
2019-06-27T08:36:54.546Z,19.21
2019-06-27T08:38:04.791Z,19.12
2019-06-27T08:39:15.038Z,19.21
2019-06-27T08:40:25.274Z,19.12
2019-06-27T08:41:35.421Z,19.19
2019-06-27T08:42:45.570Z,19.19
2019-06-27T08:43:55.716Z,19.08
2019-06-27T08:45:05.847Z,19.09
2019-06-27T08:46:16.083Z,19.19
2019-06-27T08:47:25.942Z,19.28
2019-06-27T08:48:36.284Z,19.37
2019-06-27T08:49:48.773Z,19.56
2019-06-27T08:51:01.584Z,19.74
2019-06-27T08:52:12.178Z,19.8
2019-06-27T08:53:22.313Z,19.8
2019-06-27T08:54:32.178Z,19.88
2019-06-27T08:55:42.325Z,20
2019-06-27T08:56:52.483Z,20.2
2019-06-27T08:58:02.667Z,20.41
2019-06-27T08:59:12.819Z,20.67
2019-06-27T09:00:22.941Z,21.12
2019-06-27T09:01:33.100Z,21.37
2019-06-27T09:02:43.222Z,21.84
2019-06-27T09:03:53.367Z,22.48
2019-06-27T09:05:03.534Z,23.13
2019-06-27T09:06:13.500Z,23.7
2019-06-27T09:07:26.499Z,24.05
2019-06-27T09:08:36.691Z,24.09
2019-06-27T09:09:47.038Z,24.24
2019-06-27T09:10:57.044Z,24.48
2019-06-27T09:12:07.199Z,24.85
2019-06-27T09:14:31.021Z,25.47
2019-06-27T09:15:42.131Z,25.37
2019-06-27T09:16:53.508Z,25.54
2019-06-27T09:18:03.639Z,25.76
2019-06-27T09:19:13.787Z,25.96
2019-06-27T09:20:23.949Z,25.97
2019-06-27T09:25:22.383Z,25.66
2019-06-27T09:26:32.565Z,25.9
2019-06-27T09:27:42.715Z,26.19
2019-06-27T09:28:52.862Z,26.3
2019-06-27T09:30:03.248Z,26.25
2019-06-27T09:31:13.413Z,26.34
2019-06-27T09:32:30.622Z,26.41
2019-06-27T09:33:40.517Z,26.41
2019-06-27T09:34:52.696Z,26.53
2019-06-27T09:36:09.098Z,26.71
2019-06-27T09:37:23.122Z,26.88
2019-06-27T09:38:35.477Z,26.92
2019-06-27T09:39:45.661Z,27.07
2019-06-27T09:40:58.453Z,27.07
2019-06-27T09:42:08.610Z,27.12
2019-06-27T09:43:18.741Z,27.1
2019-06-27T09:44:28.899Z,27.24
2019-06-27T09:45:42.543Z,27.12
2019-06-27T09:46:53.892Z,27.26
2019-06-27T09:48:04.037Z,27.3
2019-06-27T09:49:13.943Z,27.12
2019-06-27T09:50:26.499Z,27.3
2019-06-27T09:52:52.839Z,27.7
2019-06-27T09:54:03.019Z,27.77
2019-06-27T09:55:16.500Z,27.74
2019-06-27T09:56:26.650Z,27.61
2019-06-27T09:57:36.837Z,27.64
2019-06-27T09:58:47.022Z,27.87
2019-06-27T09:59:57.166Z,27.98
2019-06-27T10:01:10.375Z,28.14
2019-06-27T10:02:23.770Z,28.32
2019-06-27T10:03:48.891Z,28.24
2019-06-27T10:04:59.048Z,28.22
2019-06-27T10:06:09.205Z,28.24
2019-06-27T10:07:20.360Z,28.23
2019-06-27T10:08:30.536Z,28.07
2019-06-27T10:09:40.722Z,27.97
2019-06-27T10:10:50.956Z,27.9
2019-06-27T10:12:01.369Z,27.72
2019-06-27T10:13:11.559Z,27.37
2019-06-27T10:14:21.710Z,27.28
2019-06-27T10:15:31.838Z,27.41
2019-06-27T10:16:41.990Z,27.43
2019-06-27T10:17:52.383Z,27.42
2019-06-27T10:19:02.574Z,27.46
2019-06-27T10:20:12.714Z,27.58
2019-06-27T10:21:22.957Z,27.71
2019-06-27T10:22:33.118Z,27.83
2019-06-27T10:23:43.317Z,27.95
2019-06-27T10:26:09.687Z,27.65
2019-06-27T10:27:19.848Z,27.49
2019-06-27T10:28:29.779Z,27.5
2019-06-27T10:29:41.474Z,27.34
2019-06-27T10:30:53.179Z,27.14
2019-06-27T10:32:08.324Z,27.14
2019-06-27T10:34:35.385Z,26.95
2019-06-27T10:35:48.984Z,26.58
2019-06-27T10:37:02.326Z,26.53
2019-06-27T10:38:14.843Z,26.62
2019-06-27T10:39:25.408Z,26.74
2019-06-27T10:40:38.996Z,26.8
2019-06-27T10:41:50.981Z,26.96
2019-06-27T10:43:02.358Z,26.98
2019-06-27T10:44:12.513Z,27.07
2019-06-27T10:45:22.373Z,27.01
2019-06-27T10:47:48.776Z,27.33
2019-06-27T10:48:59.048Z,27.63
2019-06-27T10:50:09.217Z,27.68
2019-06-27T10:51:19.519Z,27.63
2019-06-27T10:52:29.732Z,27.57
2019-06-27T10:56:14.926Z,27.49
2019-06-27T10:57:32.991Z,27.33
2019-06-27T10:58:46.569Z,27.41
2019-06-27T10:59:56.717Z,27.48
2019-06-27T11:01:07.319Z,27.57
2019-06-27T11:02:17.967Z,27.64
2019-06-27T11:03:28.161Z,27.5
2019-06-27T20:39:21.303Z,17.6
2019-06-27T20:40:31.489Z,17.61
2019-06-27T20:41:41.659Z,17.54
2019-06-27T20:42:51.812Z,17.55
2019-06-27T20:44:01.969Z,17.52
2019-06-27T20:45:11.956Z,17.5
2019-06-27T20:46:22.128Z,17.47
2019-06-27T20:47:32.283Z,17.42
2019-06-27T20:48:42.438Z,17.42
2019-06-27T20:49:52.725Z,17.43
2019-06-27T20:51:02.939Z,17.36
2019-06-27T20:52:13.187Z,17.39
2019-06-27T20:53:23.391Z,17.24
2019-06-27T20:54:33.599Z,17.24
2019-06-27T20:55:43.776Z,17.27
2019-06-27T20:56:53.977Z,17.28
2019-06-27T20:58:03.952Z,17.27
2019-06-27T20:59:14.149Z,17.27
2019-06-27T21:00:24.037Z,17.27
2019-06-27T21:01:36.610Z,17.27
2019-06-27T21:02:49.797Z,17.16
2019-06-27T21:03:59.993Z,17.11
2019-06-27T21:05:11.164Z,17.09
2019-06-27T21:06:21.309Z,17.12
2019-06-27T21:07:31.806Z,17.09
2019-06-27T21:08:59.805Z,17.12
2019-06-27T21:10:10.017Z,17.04
2019-06-27T21:11:20.207Z,17.05
2019-06-27T21:12:30.372Z,17.08
2019-06-27T21:13:40.513Z,17.01
2019-06-27T21:14:50.416Z,17.09
2019-06-27T21:16:00.598Z,17.02
2019-06-27T21:17:10.754Z,17.05
2019-06-27T21:18:20.964Z,17.01
2019-06-27T21:19:31.109Z,16.99
2019-06-27T21:20:41.262Z,17.04
2019-06-27T21:21:51.546Z,16.93
2019-06-27T21:23:04.627Z,16.86
2019-06-27T21:24:16.430Z,16.9
2019-06-27T21:25:30.373Z,16.84
2019-06-27T21:26:43.137Z,16.74
2019-06-27T21:27:53.500Z,16.74
2019-06-27T21:29:03.671Z,16.74
2019-06-27T21:30:13.927Z,16.72
2019-06-27T21:31:23.806Z,16.68
2019-06-27T21:32:36.856Z,16.68
2019-06-27T21:33:47.003Z,16.72
2019-06-27T21:34:57.164Z,16.69
2019-06-27T21:36:07.463Z,16.66
2019-06-27T21:37:17.600Z,16.68
2019-06-27T21:38:27.728Z,16.69
2019-06-27T21:39:37.896Z,16.59
2019-06-27T21:40:48.052Z,16.56
2019-06-27T21:41:58.213Z,16.59
2019-06-27T21:43:08.407Z,16.62
2019-06-27T21:44:18.560Z,16.62
2019-06-27T21:45:28.700Z,16.59
2019-06-27T21:46:38.861Z,16.57
2019-06-27T21:47:49.012Z,16.59
2019-06-27T21:48:59.167Z,16.49
2019-06-27T21:50:09.535Z,16.43
2019-06-27T21:51:19.670Z,16.47
2019-06-27T21:52:29.805Z,16.46
2019-06-27T21:53:40.002Z,16.46
2019-06-27T21:54:50.137Z,16.39
2019-06-27T21:56:00.308Z,16.44
2019-06-27T21:57:10.460Z,16.39
2019-06-27T21:58:20.247Z,16.42
2019-06-27T21:59:30.128Z,16.43
2019-06-27T22:00:40.305Z,16.46
2019-06-27T22:01:50.496Z,16.42
2019-06-27T22:03:00.642Z,16.31
2019-06-27T22:04:10.544Z,16.42
2019-06-27T22:05:20.731Z,16.34
2019-06-27T22:06:30.880Z,16.32
2019-06-27T22:07:41.084Z,16.43
2019-06-27T22:08:51.249Z,16.36
2019-06-27T22:10:01.373Z,16.32
2019-06-27T22:11:11.745Z,16.31
2019-06-27T22:12:21.964Z,16.35
2019-06-27T22:13:32.103Z,16.39
2019-06-27T22:14:42.251Z,16.38
2019-06-27T22:15:52.405Z,16.35
2019-06-27T22:17:02.531Z,16.32
2019-06-27T22:18:12.453Z,16.32
2019-06-27T22:19:22.617Z,16.31
2019-06-27T22:20:32.779Z,16.25
2019-06-27T22:21:45.151Z,16.28
2019-06-27T22:22:55.354Z,16.29
2019-06-27T22:24:05.534Z,16.25
2019-06-27T22:25:15.678Z,16.17
2019-06-27T22:26:25.813Z,16.21
2019-06-27T22:27:35.954Z,16.25
2019-06-27T22:28:46.089Z,16.24
2019-06-27T22:29:56.297Z,16.28
2019-06-27T22:31:06.446Z,16.21
2019-06-27T22:32:16.257Z,16.2
2019-06-27T22:33:26.383Z,16.24
2019-06-27T22:34:36.547Z,16.19
2019-06-27T22:35:46.720Z,16.2
2019-06-27T22:36:56.635Z,16.27
2019-06-27T22:38:06.830Z,16.17
2019-06-27T22:39:16.962Z,16.17
2019-06-27T22:40:27.111Z,16.2
2019-06-27T22:41:37.036Z,16.16
2019-06-27T22:42:47.171Z,16.16
2019-06-27T22:43:57.354Z,16.1
2019-06-27T22:45:07.524Z,16.27
2019-06-27T22:46:17.657Z,16.28
2019-06-27T22:47:27.790Z,16.25
2019-06-27T22:48:37.905Z,16.28
2019-06-27T22:49:48.026Z,16.27
2019-06-27T22:50:58.196Z,16.25
2019-06-27T22:52:08.370Z,16.34
2019-06-27T22:53:20.752Z,16.25
2019-06-27T22:54:31.154Z,16.31
2019-06-27T22:55:41.271Z,16.32
2019-06-27T22:56:51.388Z,16.29
2019-06-27T22:58:01.497Z,16.32
2019-06-27T22:59:11.634Z,16.2
2019-06-27T23:00:21.759Z,16.19
2019-06-27T23:01:31.964Z,16.32
2019-06-27T23:02:42.121Z,16.28
2019-06-27T23:03:52.288Z,16.2
2019-06-27T23:05:02.459Z,16.25
2019-06-27T23:06:12.659Z,16.21
2019-06-27T23:07:22.809Z,16.2
2019-06-27T23:08:32.942Z,16.17
2019-06-27T23:09:58.353Z,16.19
2019-06-27T23:11:08.521Z,16.11
2019-06-27T23:12:18.678Z,16.2
2019-06-27T23:13:28.551Z,16.19
2019-06-27T23:14:38.677Z,16.19
2019-06-27T23:15:48.810Z,16.27
2019-06-27T23:16:59.005Z,16.2
2019-06-27T23:18:09.112Z,16.19
2019-06-27T23:19:19.238Z,16.19
2019-06-27T23:20:29.379Z,16.17
2019-06-27T23:21:39.536Z,16.06
2019-06-27T23:22:49.655Z,16.1
2019-06-27T23:23:59.773Z,16.11
2019-06-27T23:25:09.916Z,16.11
2019-06-27T23:26:20.020Z,16.07
2019-06-27T23:27:30.143Z,16.09
2019-06-27T23:28:40.265Z,16.04
2019-06-27T23:29:50.425Z,16.09
2019-06-27T23:31:00.557Z,16.07
2019-06-27T23:32:10.447Z,16.2
2019-06-27T23:33:20.324Z,16.2
2019-06-27T23:34:30.455Z,16.13
2019-06-27T23:35:40.560Z,16.07
2019-06-27T23:36:50.677Z,16.07
2019-06-27T23:38:00.806Z,15.99
2019-06-27T23:39:11.023Z,16.01
2019-06-27T23:40:21.155Z,16.04
2019-06-27T23:41:31.270Z,16.04
2019-06-27T23:42:41.391Z,15.99
2019-06-27T23:43:51.535Z,16.02
2019-06-27T23:45:01.864Z,16.04
2019-06-27T23:46:11.689Z,15.95
2019-06-27T23:47:21.615Z,16.04
2019-06-27T23:48:31.782Z,16.01
2019-06-27T23:49:41.902Z,15.92
2019-06-27T23:50:52.025Z,15.99
2019-06-27T23:52:02.176Z,15.98
2019-06-27T23:53:12.324Z,15.98
2019-06-27T23:54:22.439Z,15.99
2019-06-27T23:55:32.601Z,15.96
2019-06-27T23:56:42.362Z,15.84
2019-06-27T23:57:52.492Z,15.92
2019-06-27T23:59:02.610Z,15.91
